BTK6401 WARR-WIII
Flight info
| Callsign | BTK6401 |
|---|---|
| Flight time | 1h 10m |
| Altitude | 34000 |
| Route | LASEM T2 KALUT T6 KURUS |
| Aircraft | A320/M-SDE3FGHIRWY/LB1 |
Departure
| Time | 2026-05-07 08:24 |
|---|---|
| Airport | Juanda International Airport (WARR) |
Arrival
| Time | 2026-05-07 09:35 |
|---|---|
| Airport | Soekarno-Hatta International Airport (WIII) |
| Time | Latitude | Longitude | Altitude | Speed | Heading |
|---|---|---|---|---|---|
| 2026-05-07 08:06 | -7.37590 | 112.79467 | 17 ft | 0 kts | 9° |
| 2026-05-07 08:14 | -7.37599 | 112.79466 | 17 ft | 2 kts | 9° |
| 2026-05-07 08:15 | -7.37614 | 112.79462 | 17 ft | 2 kts | 9° |
| 2026-05-07 08:15 | -7.37629 | 112.79460 | 16 ft | 2 kts | 9° |
| 2026-05-07 08:15 | -7.37644 | 112.79458 | 16 ft | 2 kts | 9° |
| 2026-05-07 08:15 | -7.37653 | 112.79456 | 16 ft | 2 kts | 4° |
| 2026-05-07 08:16 | -7.37668 | 112.79459 | 16 ft | 2 kts | 330° |
| 2026-05-07 08:16 | -7.37679 | 112.79469 | 16 ft | 2 kts | 301° |
| 2026-05-07 08:16 | -7.37683 | 112.79479 | 16 ft | 0 kts | 283° |
| 2026-05-07 08:16 | -7.37684 | 112.79486 | 16 ft | 0 kts | 280° |
| 2026-05-07 08:18 | -7.37684 | 112.79482 | 16 ft | 2 kts | 280° |
| 2026-05-07 08:18 | -7.37700 | 112.79445 | 14 ft | 10 kts | 200° |
| 2026-05-07 08:18 | -7.37796 | 112.79431 | 12 ft | 16 kts | 186° |
| 2026-05-07 08:19 | -7.37912 | 112.79388 | 10 ft | 18 kts | 245° |
| 2026-05-07 08:19 | -7.37902 | 112.79257 | 10 ft | 18 kts | 279° |
| 2026-05-07 08:19 | -7.37881 | 112.79131 | 10 ft | 18 kts | 279° |
| 2026-05-07 08:19 | -7.37860 | 112.79005 | 10 ft | 17 kts | 279° |
| 2026-05-07 08:20 | -7.37840 | 112.78884 | 11 ft | 17 kts | 279° |
| 2026-05-07 08:20 | -7.37821 | 112.78766 | 12 ft | 16 kts | 279° |
| 2026-05-07 08:20 | -7.37803 | 112.78651 | 12 ft | 16 kts | 279° |
| 2026-05-07 08:20 | -7.37784 | 112.78538 | 12 ft | 16 kts | 279° |
| 2026-05-07 08:21 | -7.37766 | 112.78422 | 12 ft | 16 kts | 279° |
| 2026-05-07 08:21 | -7.37747 | 112.78308 | 13 ft | 15 kts | 279° |
| 2026-05-07 08:21 | -7.37730 | 112.78200 | 13 ft | 15 kts | 279° |
| 2026-05-07 08:21 | -7.37712 | 112.78088 | 13 ft | 17 kts | 279° |
| 2026-05-07 08:22 | -7.37690 | 112.77956 | 14 ft | 20 kts | 279° |
| 2026-05-07 08:22 | -7.37666 | 112.77808 | 15 ft | 22 kts | 279° |
| 2026-05-07 08:22 | -7.37640 | 112.77646 | 15 ft | 23 kts | 279° |
| 2026-05-07 08:22 | -7.37617 | 112.77490 | 16 ft | 20 kts | 280° |
| 2026-05-07 08:23 | -7.37673 | 112.77379 | 13 ft | 21 kts | 200° |
| 2026-05-07 08:23 | -7.37774 | 112.77395 | 12 ft | 11 kts | 106° |
| 2026-05-07 08:23 | -7.37789 | 112.77479 | 12 ft | 12 kts | 100° |
| 2026-05-07 08:23 | -7.37829 | 112.77726 | 12 ft | 69 kts | 100° |
| 2026-05-07 08:24 | -7.37943 | 112.78434 | 12 ft | 130 kts | 99° |
| 2026-05-07 08:24 | -7.38111 | 112.79494 | 147 ft | 166 kts | 101° |
| 2026-05-07 08:24 | -7.38301 | 112.80621 | 735 ft | 166 kts | 100° |
| 2026-05-07 08:24 | -7.38427 | 112.81447 | 1199 ft | 167 kts | 99° |
| 2026-05-07 08:25 | -7.38494 | 112.81925 | 1488 ft | 166 kts | 99° |
| 2026-05-07 08:25 | -7.38658 | 112.83097 | 2050 ft | 172 kts | 99° |
| 2026-05-07 08:25 | -7.38835 | 112.84338 | 2375 ft | 187 kts | 99° |
| 2026-05-07 08:25 | -7.39032 | 112.85689 | 2659 ft | 207 kts | 99° |
| 2026-05-07 08:26 | -7.39057 | 112.88817 | 3358 ft | 247 kts | 64° |
| 2026-05-07 08:26 | -7.37881 | 112.90112 | 3747 ft | 267 kts | 30° |
| 2026-05-07 08:26 | -7.36066 | 112.90547 | 4392 ft | 277 kts | 357° |
| 2026-05-07 08:27 | -7.34183 | 112.90291 | 5239 ft | 277 kts | 352° |
| 2026-05-07 08:27 | -7.32280 | 112.89991 | 6023 ft | 281 kts | 352° |
| 2026-05-07 08:27 | -7.30336 | 112.89704 | 6833 ft | 283 kts | 353° |
| 2026-05-07 08:27 | -7.28402 | 112.89434 | 7644 ft | 286 kts | 353° |
| 2026-05-07 08:28 | -7.26417 | 112.89166 | 8465 ft | 288 kts | 353° |
| 2026-05-07 08:28 | -7.24449 | 112.88906 | 9268 ft | 291 kts | 353° |
| 2026-05-07 08:28 | -7.22426 | 112.88641 | 10074 ft | 294 kts | 353° |
| 2026-05-07 08:28 | -7.20382 | 112.88374 | 10637 ft | 306 kts | 353° |
| 2026-05-07 08:29 | -7.18208 | 112.88090 | 10998 ft | 324 kts | 353° |
| 2026-05-07 08:29 | -7.15941 | 112.87663 | 11311 ft | 343 kts | 341° |
| 2026-05-07 08:29 | -7.13841 | 112.86452 | 11600 ft | 361 kts | 319° |
| 2026-05-07 08:29 | -7.12296 | 112.84396 | 11940 ft | 377 kts | 295° |
| 2026-05-07 08:30 | -7.11599 | 112.81846 | 12603 ft | 381 kts | 280° |
| 2026-05-07 08:30 | -7.11162 | 112.79198 | 13347 ft | 383 kts | 279° |
| 2026-05-07 08:30 | -7.10733 | 112.76547 | 13981 ft | 388 kts | 280° |
| 2026-05-07 08:30 | -7.10288 | 112.73892 | 14619 ft | 392 kts | 280° |
| 2026-05-07 08:31 | -7.09817 | 112.71178 | 15264 ft | 395 kts | 280° |
| 2026-05-07 08:31 | -7.09333 | 112.68436 | 15897 ft | 399 kts | 281° |
| 2026-05-07 08:31 | -7.08842 | 112.65687 | 16515 ft | 403 kts | 281° |
| 2026-05-07 08:31 | -7.08341 | 112.62897 | 17125 ft | 406 kts | 281° |
| 2026-05-07 08:32 | -7.07845 | 112.60127 | 17715 ft | 410 kts | 281° |
| 2026-05-07 08:32 | -7.07333 | 112.57273 | 18307 ft | 414 kts | 281° |
| 2026-05-07 08:32 | -7.06824 | 112.54436 | 18880 ft | 417 kts | 281° |
| 2026-05-07 08:32 | -7.06310 | 112.51571 | 19438 ft | 421 kts | 281° |
| 2026-05-07 08:33 | -7.05786 | 112.48657 | 19979 ft | 425 kts | 281° |
| 2026-05-07 08:33 | -7.05255 | 112.45709 | 20507 ft | 428 kts | 281° |
| 2026-05-07 08:33 | -7.04722 | 112.42757 | 21017 ft | 432 kts | 281° |
| 2026-05-07 08:33 | -7.04189 | 112.39797 | 21509 ft | 435 kts | 281° |
| 2026-05-07 08:34 | -7.03643 | 112.36773 | 21995 ft | 439 kts | 281° |
| 2026-05-07 08:34 | -7.03098 | 112.33760 | 22460 ft | 442 kts | 281° |
| 2026-05-07 08:34 | -7.02442 | 112.30771 | 22905 ft | 445 kts | 285° |
| 2026-05-07 08:34 | -7.01582 | 112.27781 | 23356 ft | 448 kts | 289° |
| 2026-05-07 08:35 | -7.00521 | 112.24833 | 23793 ft | 451 kts | 292° |
| 2026-05-07 08:35 | -6.99361 | 112.21903 | 24217 ft | 454 kts | 292° |
| 2026-05-07 08:35 | -6.98177 | 112.18961 | 24627 ft | 457 kts | 292° |
| 2026-05-07 08:35 | -6.96919 | 112.16017 | 25027 ft | 460 kts | 295° |
| 2026-05-07 08:36 | -6.95464 | 112.13104 | 25421 ft | 462 kts | 299° |
| 2026-05-07 08:36 | -6.93859 | 112.10355 | 25789 ft | 465 kts | 303° |
| 2026-05-07 08:36 | -6.92082 | 112.07601 | 26152 ft | 467 kts | 304° |
| 2026-05-07 08:36 | -6.90277 | 112.04854 | 26495 ft | 470 kts | 304° |
| 2026-05-07 08:37 | -6.88483 | 112.02143 | 26818 ft | 472 kts | 304° |
| 2026-05-07 08:37 | -6.86732 | 111.99506 | 27121 ft | 474 kts | 304° |
| 2026-05-07 08:37 | -6.84884 | 111.96712 | 27425 ft | 477 kts | 304° |
| 2026-05-07 08:37 | -6.83074 | 111.93964 | 27717 ft | 479 kts | 304° |
| 2026-05-07 08:38 | -6.81236 | 111.91167 | 28094 ft | 478 kts | 304° |
| 2026-05-07 08:38 | -6.79393 | 111.88354 | 28550 ft | 476 kts | 304° |
| 2026-05-07 08:38 | -6.77596 | 111.85612 | 28977 ft | 474 kts | 304° |
| 2026-05-07 08:38 | -6.75792 | 111.82856 | 29379 ft | 473 kts | 304° |
| 2026-05-07 08:39 | -6.73981 | 111.80090 | 29769 ft | 473 kts | 304° |
| 2026-05-07 08:39 | -6.72184 | 111.77346 | 30151 ft | 472 kts | 304° |
| 2026-05-07 08:39 | -6.70368 | 111.74571 | 30535 ft | 471 kts | 304° |
| 2026-05-07 08:39 | -6.68578 | 111.71836 | 30908 ft | 470 kts | 304° |
| 2026-05-07 08:40 | -6.66790 | 111.69104 | 31275 ft | 469 kts | 304° |
| 2026-05-07 08:40 | -6.64992 | 111.66360 | 31633 ft | 468 kts | 304° |
| 2026-05-07 08:40 | -6.63209 | 111.63634 | 31976 ft | 467 kts | 303° |
| 2026-05-07 08:40 | -6.61529 | 111.60883 | 32277 ft | 468 kts | 301° |
| 2026-05-07 08:41 | -6.59971 | 111.58025 | 32527 ft | 469 kts | 298° |
| 2026-05-07 08:41 | -6.58453 | 111.55115 | 32755 ft | 470 kts | 298° |
| 2026-05-07 08:41 | -6.56940 | 111.52192 | 32977 ft | 471 kts | 298° |
| 2026-05-07 08:41 | -6.55425 | 111.49265 | 33195 ft | 472 kts | 298° |
| 2026-05-07 08:42 | -6.53910 | 111.46339 | 33406 ft | 472 kts | 298° |
| 2026-05-07 08:42 | -6.52392 | 111.43411 | 33607 ft | 473 kts | 298° |
| 2026-05-07 08:42 | -6.50868 | 111.40476 | 33765 ft | 474 kts | 298° |
| 2026-05-07 08:42 | -6.49352 | 111.37556 | 33779 ft | 475 kts | 298° |
| 2026-05-07 08:43 | -6.46307 | 111.31682 | 33787 ft | 475 kts | 298° |
| 2026-05-07 08:43 | -6.43255 | 111.25782 | 33789 ft | 475 kts | 298° |
| 2026-05-07 08:44 | -6.40207 | 111.19913 | 33789 ft | 475 kts | 298° |
| 2026-05-07 08:44 | -6.37152 | 111.14036 | 33790 ft | 475 kts | 298° |
| 2026-05-07 08:45 | -6.34065 | 111.08173 | 33789 ft | 475 kts | 299° |
| 2026-05-07 08:45 | -6.30905 | 111.02309 | 33789 ft | 475 kts | 299° |
| 2026-05-07 08:46 | -6.27825 | 110.96591 | 33789 ft | 476 kts | 299° |
| 2026-05-07 08:46 | -6.24699 | 110.90778 | 33789 ft | 476 kts | 299° |
| 2026-05-07 08:47 | -6.21553 | 110.84924 | 33789 ft | 476 kts | 299° |
| 2026-05-07 08:47 | -6.18408 | 110.79072 | 33790 ft | 476 kts | 299° |
| 2026-05-07 08:48 | -6.15265 | 110.73226 | 33790 ft | 476 kts | 299° |
| 2026-05-07 08:48 | -6.12113 | 110.67365 | 33789 ft | 476 kts | 299° |
| 2026-05-07 08:49 | -6.08959 | 110.61501 | 33790 ft | 476 kts | 299° |
| 2026-05-07 08:49 | -6.05813 | 110.55650 | 33790 ft | 476 kts | 299° |
| 2026-05-07 08:50 | -6.02657 | 110.49786 | 33790 ft | 476 kts | 299° |
| 2026-05-07 08:50 | -5.99712 | 110.43873 | 33788 ft | 477 kts | 293° |
| 2026-05-07 08:51 | -5.97630 | 110.37553 | 33788 ft | 478 kts | 284° |
| 2026-05-07 08:51 | -5.96572 | 110.30942 | 33787 ft | 479 kts | 275° |
| 2026-05-07 08:52 | -5.96428 | 110.24372 | 33789 ft | 479 kts | 270° |
| 2026-05-07 08:52 | -5.96458 | 110.17679 | 33790 ft | 479 kts | 270° |
| 2026-05-07 08:53 | -5.96476 | 110.10995 | 33790 ft | 479 kts | 270° |
| 2026-05-07 08:53 | -5.96481 | 110.04311 | 33790 ft | 479 kts | 270° |
| 2026-05-07 08:54 | -5.96481 | 109.97608 | 33790 ft | 479 kts | 270° |
| 2026-05-07 08:54 | -5.96478 | 109.90940 | 33790 ft | 479 kts | 270° |
| 2026-05-07 08:55 | -5.96473 | 109.84213 | 33790 ft | 479 kts | 270° |
| 2026-05-07 08:55 | -5.96468 | 109.77535 | 33790 ft | 479 kts | 270° |
| 2026-05-07 08:56 | -5.96462 | 109.70848 | 33790 ft | 479 kts | 270° |
| 2026-05-07 08:56 | -5.96456 | 109.64178 | 33790 ft | 479 kts | 270° |
| 2026-05-07 08:57 | -5.96448 | 109.57491 | 33790 ft | 479 kts | 270° |
| 2026-05-07 08:57 | -5.96440 | 109.50845 | 33790 ft | 479 kts | 270° |
| 2026-05-07 08:58 | -5.96431 | 109.44141 | 33790 ft | 479 kts | 270° |
| 2026-05-07 08:58 | -5.96421 | 109.37452 | 33790 ft | 479 kts | 270° |
| 2026-05-07 08:59 | -5.96410 | 109.30728 | 33789 ft | 479 kts | 270° |
| 2026-05-07 08:59 | -5.96398 | 109.24029 | 33789 ft | 479 kts | 270° |
| 2026-05-07 09:00 | -5.96385 | 109.17349 | 33789 ft | 479 kts | 270° |
| 2026-05-07 09:00 | -5.96374 | 109.10683 | 33789 ft | 479 kts | 270° |
| 2026-05-07 09:01 | -5.96360 | 109.03967 | 33789 ft | 479 kts | 271° |
| 2026-05-07 09:01 | -5.96347 | 108.97640 | 33789 ft | 480 kts | 271° |
| 2026-05-07 09:02 | -5.96330 | 108.90958 | 33789 ft | 480 kts | 271° |
| 2026-05-07 09:02 | -5.96312 | 108.84285 | 33786 ft | 479 kts | 271° |
| 2026-05-07 09:03 | -5.96295 | 108.77576 | 33781 ft | 479 kts | 271° |
| 2026-05-07 09:03 | -5.96277 | 108.70873 | 33774 ft | 479 kts | 271° |
| 2026-05-07 09:04 | -5.96258 | 108.64204 | 33768 ft | 479 kts | 271° |
| 2026-05-07 09:04 | -5.96239 | 108.57513 | 33765 ft | 479 kts | 271° |
| 2026-05-07 09:05 | -5.96218 | 108.50839 | 33763 ft | 479 kts | 271° |
| 2026-05-07 09:05 | -5.96202 | 108.44122 | 33763 ft | 479 kts | 271° |
| 2026-05-07 09:06 | -5.96199 | 108.37444 | 33458 ft | 479 kts | 270° |
| 2026-05-07 09:06 | -5.96197 | 108.34104 | 33205 ft | 476 kts | 271° |
| 2026-05-07 09:06 | -5.96194 | 108.30803 | 32884 ft | 475 kts | 271° |
| 2026-05-07 09:07 | -5.96190 | 108.27490 | 32296 ft | 473 kts | 271° |
| 2026-05-07 09:07 | -5.96186 | 108.24213 | 31574 ft | 473 kts | 271° |
| 2026-05-07 09:07 | -5.96182 | 108.20898 | 31024 ft | 467 kts | 270° |
| 2026-05-07 09:07 | -5.96179 | 108.17664 | 30780 ft | 455 kts | 271° |
| 2026-05-07 09:08 | -5.96176 | 108.14565 | 30765 ft | 438 kts | 271° |
| 2026-05-07 09:08 | -5.96173 | 108.11563 | 30758 ft | 422 kts | 271° |
| 2026-05-07 09:08 | -5.96169 | 108.08699 | 30763 ft | 406 kts | 271° |
| 2026-05-07 09:08 | -5.96165 | 108.05917 | 30784 ft | 390 kts | 271° |
| 2026-05-07 09:09 | -5.96161 | 108.03229 | 30807 ft | 375 kts | 271° |
| 2026-05-07 09:09 | -5.96158 | 108.00695 | 30830 ft | 362 kts | 271° |
| 2026-05-07 09:09 | -5.96152 | 107.95667 | 30379 ft | 366 kts | 271° |
| 2026-05-07 09:10 | -5.96153 | 107.93101 | 29900 ft | 366 kts | 270° |
| 2026-05-07 09:10 | -5.96154 | 107.90602 | 29454 ft | 365 kts | 270° |
| 2026-05-07 09:10 | -5.96154 | 107.88066 | 29003 ft | 365 kts | 270° |
| 2026-05-07 09:10 | -5.96155 | 107.85547 | 28554 ft | 364 kts | 270° |
| 2026-05-07 09:11 | -5.96155 | 107.83036 | 28105 ft | 363 kts | 270° |
| 2026-05-07 09:11 | -5.96155 | 107.80502 | 27655 ft | 363 kts | 270° |
| 2026-05-07 09:11 | -5.96155 | 107.78009 | 27217 ft | 362 kts | 270° |
| 2026-05-07 09:11 | -5.96154 | 107.75517 | 26779 ft | 361 kts | 270° |
| 2026-05-07 09:12 | -5.96154 | 107.72999 | 26331 ft | 360 kts | 270° |
| 2026-05-07 09:12 | -5.96154 | 107.71238 | 26018 ft | 359 kts | 270° |
| 2026-05-07 09:12 | -5.96153 | 107.68719 | 25569 ft | 358 kts | 270° |
| 2026-05-07 09:12 | -5.96152 | 107.65980 | 25081 ft | 357 kts | 270° |
| 2026-05-07 09:13 | -5.96152 | 107.63348 | 24610 ft | 357 kts | 270° |
| 2026-05-07 09:13 | -5.96152 | 107.60674 | 24134 ft | 356 kts | 270° |
| 2026-05-07 09:13 | -5.96153 | 107.58210 | 23688 ft | 355 kts | 270° |
| 2026-05-07 09:13 | -5.96154 | 107.55778 | 23249 ft | 354 kts | 270° |
| 2026-05-07 09:14 | -5.96154 | 107.53342 | 22806 ft | 354 kts | 270° |
| 2026-05-07 09:14 | -5.96155 | 107.50910 | 22367 ft | 353 kts | 270° |
| 2026-05-07 09:14 | -5.96155 | 107.48486 | 21929 ft | 352 kts | 270° |
| 2026-05-07 09:14 | -5.96155 | 107.46065 | 21493 ft | 351 kts | 270° |
| 2026-05-07 09:15 | -5.96155 | 107.43673 | 21059 ft | 350 kts | 270° |
| 2026-05-07 09:15 | -5.96155 | 107.41270 | 20622 ft | 349 kts | 270° |
| 2026-05-07 09:15 | -5.96154 | 107.38895 | 20192 ft | 348 kts | 270° |
| 2026-05-07 09:15 | -5.96154 | 107.36479 | 19753 ft | 347 kts | 270° |
| 2026-05-07 09:16 | -5.96153 | 107.34112 | 19324 ft | 346 kts | 270° |
| 2026-05-07 09:16 | -5.96152 | 107.31719 | 18890 ft | 344 kts | 270° |
| 2026-05-07 09:16 | -5.96150 | 107.29347 | 18471 ft | 342 kts | 270° |
| 2026-05-07 09:16 | -5.96147 | 107.26964 | 18049 ft | 340 kts | 270° |
| 2026-05-07 09:17 | -5.96143 | 107.24648 | 17639 ft | 338 kts | 270° |
| 2026-05-07 09:17 | -5.96139 | 107.22271 | 17217 ft | 336 kts | 270° |
| 2026-05-07 09:17 | -5.96135 | 107.19966 | 16807 ft | 334 kts | 270° |
| 2026-05-07 09:17 | -5.96132 | 107.17631 | 16390 ft | 332 kts | 270° |
| 2026-05-07 09:18 | -5.96128 | 107.15330 | 15981 ft | 330 kts | 270° |
| 2026-05-07 09:18 | -5.96124 | 107.13040 | 15572 ft | 328 kts | 270° |
| 2026-05-07 09:18 | -5.96120 | 107.10782 | 15169 ft | 326 kts | 270° |
| 2026-05-07 09:18 | -5.96116 | 107.08508 | 14762 ft | 324 kts | 270° |
| 2026-05-07 09:19 | -5.96112 | 107.06253 | 14359 ft | 322 kts | 270° |
| 2026-05-07 09:19 | -5.96107 | 107.04033 | 13961 ft | 320 kts | 270° |
| 2026-05-07 09:19 | -5.96103 | 107.01835 | 13602 ft | 317 kts | 270° |
| 2026-05-07 09:19 | -5.96098 | 106.99635 | 13247 ft | 313 kts | 270° |
| 2026-05-07 09:20 | -5.96093 | 106.97482 | 12897 ft | 310 kts | 270° |
| 2026-05-07 09:20 | -5.96088 | 106.95370 | 12553 ft | 307 kts | 270° |
| 2026-05-07 09:20 | -5.96083 | 106.93308 | 12218 ft | 304 kts | 270° |
| 2026-05-07 09:20 | -5.96077 | 106.91193 | 11872 ft | 300 kts | 270° |
| 2026-05-07 09:21 | -5.96072 | 106.89132 | 11536 ft | 297 kts | 270° |
| 2026-05-07 09:21 | -5.96067 | 106.87141 | 11212 ft | 294 kts | 270° |
| 2026-05-07 09:21 | -5.96061 | 106.85105 | 10880 ft | 291 kts | 270° |
| 2026-05-07 09:21 | -5.96056 | 106.83125 | 10558 ft | 288 kts | 270° |
| 2026-05-07 09:22 | -5.96051 | 106.81145 | 10235 ft | 285 kts | 270° |
| 2026-05-07 09:22 | -5.96102 | 106.79226 | 9922 ft | 282 kts | 262° |
| 2026-05-07 09:22 | -5.96570 | 106.77361 | 9582 ft | 280 kts | 250° |
| 2026-05-07 09:22 | -5.97239 | 106.75661 | 9269 ft | 278 kts | 247° |
| 2026-05-07 09:23 | -5.97973 | 106.73916 | 8945 ft | 275 kts | 247° |
| 2026-05-07 09:23 | -5.98682 | 106.72228 | 8632 ft | 273 kts | 247° |
| 2026-05-07 09:23 | -5.99393 | 106.70515 | 8314 ft | 271 kts | 247° |
| 2026-05-07 09:23 | -6.00099 | 106.68796 | 7992 ft | 269 kts | 248° |
| 2026-05-07 09:24 | -6.00793 | 106.67090 | 7659 ft | 267 kts | 248° |
| 2026-05-07 09:24 | -6.01488 | 106.65373 | 7324 ft | 266 kts | 248° |
| 2026-05-07 09:24 | -6.02189 | 106.63642 | 6989 ft | 264 kts | 248° |
| 2026-05-07 09:24 | -6.02878 | 106.61941 | 6661 ft | 263 kts | 248° |
| 2026-05-07 09:25 | -6.03557 | 106.60264 | 6342 ft | 261 kts | 248° |
| 2026-05-07 09:25 | -6.04236 | 106.58586 | 6026 ft | 259 kts | 248° |
| 2026-05-07 09:25 | -6.04916 | 106.56905 | 5685 ft | 258 kts | 248° |
| 2026-05-07 09:25 | -6.05587 | 106.55246 | 5344 ft | 258 kts | 248° |
| 2026-05-07 09:26 | -6.06267 | 106.53562 | 4999 ft | 257 kts | 248° |
| 2026-05-07 09:26 | -6.06935 | 106.51905 | 4661 ft | 257 kts | 248° |
| 2026-05-07 09:26 | -6.07603 | 106.50251 | 4324 ft | 256 kts | 248° |
| 2026-05-07 09:26 | -6.08270 | 106.48598 | 3987 ft | 256 kts | 248° |
| 2026-05-07 09:27 | -6.08945 | 106.46928 | 3646 ft | 255 kts | 248° |
| 2026-05-07 09:27 | -6.09607 | 106.45288 | 3310 ft | 255 kts | 248° |
| 2026-05-07 09:27 | -6.11290 | 106.42249 | 2646 ft | 253 kts | 213° |
| 2026-05-07 09:28 | -6.12903 | 106.41740 | 2361 ft | 244 kts | 174° |
| 2026-05-07 09:28 | -6.14522 | 106.42080 | 2166 ft | 235 kts | 160° |
| 2026-05-07 09:28 | -6.16034 | 106.42567 | 2002 ft | 226 kts | 156° |
| 2026-05-07 09:28 | -6.17240 | 106.43446 | 1957 ft | 205 kts | 120° |
| 2026-05-07 09:29 | -6.17671 | 106.44706 | 2064 ft | 182 kts | 92° |
| 2026-05-07 09:29 | -6.17651 | 106.45883 | 2039 ft | 154 kts | 84° |
| 2026-05-07 09:29 | -6.17586 | 106.46881 | 1961 ft | 135 kts | 84° |
| 2026-05-07 09:29 | -6.17537 | 106.47829 | 1980 ft | 135 kts | 82° |
| 2026-05-07 09:30 | -6.17402 | 106.48756 | 1986 ft | 134 kts | 76° |
| 2026-05-07 09:30 | -6.17169 | 106.49670 | 1988 ft | 134 kts | 71° |
| 2026-05-07 09:30 | -6.16888 | 106.50552 | 1989 ft | 134 kts | 69° |
| 2026-05-07 09:30 | -6.16572 | 106.51440 | 1990 ft | 133 kts | 68° |
| 2026-05-07 09:31 | -6.16242 | 106.52308 | 1990 ft | 133 kts | 67° |
| 2026-05-07 09:31 | -6.15910 | 106.53153 | 1989 ft | 133 kts | 67° |
| 2026-05-07 09:31 | -6.15568 | 106.54007 | 1989 ft | 133 kts | 66° |
| 2026-05-07 09:31 | -6.15230 | 106.54845 | 1968 ft | 134 kts | 66° |
| 2026-05-07 09:32 | -6.14890 | 106.55686 | 1790 ft | 133 kts | 66° |
| 2026-05-07 09:32 | -6.14553 | 106.56522 | 1633 ft | 133 kts | 66° |
| 2026-05-07 09:32 | -6.14210 | 106.57378 | 1463 ft | 132 kts | 66° |
| 2026-05-07 09:32 | -6.13872 | 106.58220 | 1295 ft | 132 kts | 66° |
| 2026-05-07 09:33 | -6.13532 | 106.59068 | 1127 ft | 131 kts | 66° |
| 2026-05-07 09:33 | -6.13203 | 106.59892 | 965 ft | 131 kts | 66° |
| 2026-05-07 09:33 | -6.12871 | 106.60719 | 798 ft | 130 kts | 66° |
| 2026-05-07 09:33 | -6.12539 | 106.61552 | 639 ft | 130 kts | 66° |
| 2026-05-07 09:34 | -6.12215 | 106.62376 | 479 ft | 129 kts | 67° |
| 2026-05-07 09:34 | -6.11899 | 106.63219 | 330 ft | 129 kts | 67° |
| 2026-05-07 09:34 | -6.11572 | 106.64043 | 175 ft | 128 kts | 66° |
| 2026-05-07 09:34 | -6.11257 | 106.64810 | 52 ft | 122 kts | 66° |
| 2026-05-07 09:35 | -6.11016 | 106.65403 | 43 ft | 64 kts | 69° |
| 2026-05-07 09:35 | -6.10889 | 106.65720 | 43 ft | 41 kts | 66° |
| 2026-05-07 09:35 | -6.10798 | 106.65955 | 43 ft | 32 kts | 67° |
| 2026-05-07 09:35 | -6.10721 | 106.66157 | 43 ft | 29 kts | 69° |
| 2026-05-07 09:36 | -6.10653 | 106.66343 | 43 ft | 27 kts | 73° |
| 2026-05-07 09:36 | -6.10632 | 106.66513 | 43 ft | 23 kts | 94° |
| 2026-05-07 09:36 | -6.10674 | 106.66646 | 43 ft | 16 kts | 144° |
| 2026-05-07 09:36 | -6.10762 | 106.66679 | 43 ft | 12 kts | 190° |
| 2026-05-07 09:37 | -6.10820 | 106.66625 | 43 ft | 12 kts | 242° |
| 2026-05-07 09:37 | -6.10850 | 106.66543 | 43 ft | 12 kts | 251° |
| 2026-05-07 09:37 | -6.10879 | 106.66454 | 43 ft | 13 kts | 250° |
| 2026-05-07 09:37 | -6.10913 | 106.66365 | 43 ft | 13 kts | 247° |
| 2026-05-07 09:38 | -6.10951 | 106.66274 | 43 ft | 14 kts | 247° |
| 2026-05-07 09:38 | -6.10990 | 106.66181 | 43 ft | 14 kts | 247° |
| 2026-05-07 09:38 | -6.11029 | 106.66085 | 43 ft | 15 kts | 248° |
| 2026-05-07 09:38 | -6.11072 | 106.65974 | 43 ft | 18 kts | 248° |
| 2026-05-07 09:39 | -6.11125 | 106.65848 | 43 ft | 20 kts | 246° |
| 2026-05-07 09:39 | -6.11180 | 106.65709 | 43 ft | 21 kts | 249° |
| 2026-05-07 09:39 | -6.11238 | 106.65562 | 43 ft | 23 kts | 249° |
| 2026-05-07 09:39 | -6.11298 | 106.65409 | 43 ft | 24 kts | 248° |
| 2026-05-07 09:40 | -6.11362 | 106.65250 | 43 ft | 24 kts | 248° |
| 2026-05-07 09:40 | -6.11423 | 106.65130 | 43 ft | 13 kts | 208° |
| 2026-05-07 09:40 | -6.11510 | 106.65142 | 43 ft | 13 kts | 162° |
| 2026-05-07 09:40 | -6.11598 | 106.65140 | 43 ft | 13 kts | 214° |
| 2026-05-07 09:41 | -6.11661 | 106.65071 | 43 ft | 13 kts | 228° |
| 2026-05-07 09:41 | -6.11729 | 106.65004 | 43 ft | 14 kts | 218° |
| 2026-05-07 09:41 | -6.11816 | 106.64974 | 43 ft | 13 kts | 159° |
| 2026-05-07 09:41 | -6.11907 | 106.65012 | 43 ft | 14 kts | 157° |
| 2026-05-07 09:42 | -6.12003 | 106.65020 | 43 ft | 14 kts | 189° |
| 2026-05-07 09:42 | -6.12104 | 106.65012 | 43 ft | 14 kts | 176° |
| 2026-05-07 09:42 | -6.12197 | 106.65025 | 43 ft | 7 kts | 177° |
| 2026-05-07 09:42 | -6.12224 | 106.65026 | 43 ft | 0 kts | 178° |